Terminal Aerodrome Forecast
Issued by NWS Memphis, TN

Home | Current Version | Previous Version | Text Only | Print | Product List | Glossary On
Versions: 1 2 3 4 5 6 7 8 9 10 11 12 13 14 15 16 17 18
000
FTUS44 KMEG 231724
TAFMKL
TAF
KMKL 231724Z 2318/2418 28011G18KT P6SM SCT050
     FM240000 VRB06KT P6SM SKC
     FM240500 28013G16KT P6SM SKC
     FM241500 28016G24KT P6SM SKC=

USA.gov is the U.S. government's official web portal to all federal, state and local government web resources and services.